Time;durP1;ratioP1;P1;durP2;ratioP2;P2;SDS_P1;SDS_P2;PMS_P1;PMS_P2;Temp;Humidity;BMP_temperature;BMP_pressure;BME280_temperature;BME280_humidity;BME280_pressure;Samples;Min_cycle;Max_cycle;Signal;HPM_P1;HPM_P2
2023/03/22 00:00:11;;;;;;;12.70;6.87;;;;;;;11.72;90.55;96089.28;5056427;28;20201;-66
2023/03/22 00:02:38;;;;;;;13.00;6.40;;;;;;;11.69;89.39;96084.41;5056147;28;20333;-66
2023/03/22 00:05:05;;;;;;;11.63;5.87;;;;;;;11.76;89.20;96086.09;5056121;28;20250;-67
2023/03/22 00:07:32;;;;;;;12.90;5.63;;;;;;;11.70;89.39;96086.03;5056550;28;20204;-69
2023/03/22 00:09:58;;;;;;;13.20;5.67;;;;;;;11.68;88.80;96077.47;5056918;28;20204;-66
2023/03/22 00:12:26;;;;;;;14.03;6.23;;;;;;;11.70;90.19;96078.94;5056765;28;20290;-66
2023/03/22 00:14:53;;;;;;;22.67;7.43;;;;;;;11.49;89.59;96091.22;5055638;28;20192;-68
2023/03/22 00:17:21;;;;;;;19.30;6.57;;;;;;;11.59;88.79;96094.44;5056524;28;20231;-67
2023/03/22 00:19:48;;;;;;;11.43;5.20;;;;;;;11.61;88.62;96103.81;5056549;28;20550;-67
2023/03/22 00:22:15;;;;;;;12.67;6.37;;;;;;;11.53;89.96;96095.16;5056314;28;20643;-67
2023/03/22 00:24:41;;;;;;;16.13;6.83;;;;;;;11.58;89.16;96090.16;5055533;28;20224;-66
2023/03/22 00:27:07;;;;;;;13.50;6.90;;;;;;;11.57;89.25;96099.09;5056955;28;20289;-68
2023/03/22 00:29:35;;;;;;;16.10;6.57;;;;;;;11.65;89.51;96096.34;5056313;28;20207;-68
2023/03/22 00:32:03;;;;;;;19.37;6.50;;;;;;;11.52;88.06;96093.56;5056275;28;20220;-68
2023/03/22 00:34:31;;;;;;;20.27;6.47;;;;;;;11.64;88.28;96087.56;5055886;28;20208;-67
2023/03/22 00:36:57;;;;;;;11.90;5.20;;;;;;;11.54;88.39;96088.09;5056463;28;20687;-67
2023/03/22 00:39:23;;;;;;;11.90;5.63;;;;;;;11.54;88.79;96080.97;5056225;28;20209;-69
2023/03/22 00:41:50;;;;;;;12.77;6.17;;;;;;;11.55;88.82;96082.63;5056294;28;20221;-65
2023/03/22 00:44:17;;;;;;;16.93;6.93;;;;;;;11.55;88.23;96078.13;5055530;28;20209;-69
2023/03/22 00:46:45;;;;;;;14.80;6.87;;;;;;;11.62;87.81;96073.78;5056429;28;20231;-66
2023/03/22 00:49:11;;;;;;;13.60;7.40;;;;;;;11.62;87.28;96071.13;5056365;28;20262;-66
2023/03/22 00:51:38;;;;;;;13.80;6.90;;;;;;;11.63;87.79;96069.28;5056246;28;20228;-69
2023/03/22 00:54:04;;;;;;;15.40;7.13;;;;;;;11.57;88.20;96070.06;5055490;28;20204;-68
2023/03/22 00:56:32;;;;;;;14.07;7.47;;;;;;;11.58;88.26;96069.03;5056184;28;20205;-66
2023/03/22 00:58:59;;;;;;;14.00;7.10;;;;;;;11.57;88.33;96072.72;5056326;28;20287;-68
2023/03/22 01:01:26;;;;;;;15.07;7.33;;;;;;;11.57;88.47;96068.22;5055851;28;20224;-67
2023/03/22 01:03:53;;;;;;;13.83;6.50;;;;;;;11.63;88.43;96067.50;5055441;28;20208;-67
2023/03/22 01:06:20;;;;;;;17.30;6.70;;;;;;;11.56;87.95;96066.59;5056566;28;20224;-67
2023/03/22 01:08:49;;;;;;;11.93;6.60;;;;;;;11.55;88.55;96066.78;5055963;28;20218;-68
2023/03/22 01:11:16;;;;;;;10.47;6.13;;;;;;;11.53;89.13;96057.41;5055473;28;20228;-68
2023/03/22 01:13:43;;;;;;;14.47;6.93;;;;;;;11.54;88.66;96057.22;5055489;28;20208;-68
2023/03/22 01:16:11;;;;;;;13.43;6.13;;;;;;;11.55;88.79;96055.44;5056060;28;20745;-67
2023/03/22 01:18:38;;;;;;;12.13;6.33;;;;;;;11.47;89.15;96058.97;5055578;28;20208;-66
2023/03/22 01:21:06;;;;;;;16.15;6.47;;;;;;;11.57;89.19;96059.50;5055872;28;20225;-68
2023/03/22 01:23:33;;;;;;;10.53;6.57;;;;;;;11.46;89.43;96053.88;5056008;28;20208;-66
2023/03/22 01:26:00;;;;;;;11.23;6.37;;;;;;;11.41;89.16;96053.59;5055644;28;20228;-68
2023/03/22 01:28:26;;;;;;;15.10;6.87;;;;;;;11.40;89.21;96060.69;5055976;28;20205;-67
2023/03/22 01:30:54;;;;;;;14.60;6.77;;;;;;;11.47;88.81;96055.47;5059167;28;20217;-66
2023/03/22 01:33:20;;;;;;;12.27;6.67;;;;;;;11.41;88.84;96043.88;5059370;28;20201;-66
2023/03/22 01:35:47;;;;;;;10.27;6.20;;;;;;;11.39;89.50;96055.59;5058613;28;20211;-67
2023/03/22 01:38:15;;;;;;;11.77;6.87;;;;;;;11.47;89.26;96052.84;5059466;28;20291;-66
2023/03/22 01:40:41;;;;;;;16.33;7.10;;;;;;;11.36;89.98;96056.00;5058884;28;20216;-68
2023/03/22 01:43:13;;;;;;;10.13;6.07;;;;;;;11.43;89.66;96052.44;5059238;28;20215;-67
2023/03/22 01:45:43;;;;;;;15.67;6.43;;;;;;;11.40;90.21;96050.13;5058549;28;20231;-65
2023/03/22 01:48:15;;;;;;;10.63;5.83;;;;;;;11.41;89.45;96053.59;5058982;28;20196;-67
2023/03/22 01:50:48;;;;;;;11.70;5.97;;;;;;;11.40;90.19;96046.69;5059100;28;20339;-66
2023/03/22 01:53:17;;;;;;;11.10;5.80;;;;;;;11.30;90.77;96048.81;5059506;28;20200;-67
2023/03/22 01:55:45;;;;;;;12.77;5.97;;;;;;;11.19;90.59;96046.66;5058185;28;20292;-66
2023/03/22 01:58:15;;;;;;;13.33;5.80;;;;;;;10.95;92.06;96039.88;5058986;28;20454;-66
2023/03/22 02:00:41;;;;;;;11.67;6.10;;;;;;;10.95;92.80;96036.41;5059091;28;20224;-67
2023/03/22 02:03:08;;;;;;;10.90;5.73;;;;;;;10.98;91.91;96030.78;5059090;28;20217;-67
2023/03/22 02:05:36;;;;;;;11.47;5.93;;;;;;;11.09;92.10;96030.31;5058044;28;20235;-66
2023/03/22 02:08:03;;;;;;;11.53;5.97;;;;;;;11.00;91.92;96032.22;5059041;28;20307;-66
2023/03/22 02:10:31;;;;;;;8.73;5.37;;;;;;;10.97;92.68;96026.50;5058447;28;20212;-68
2023/03/22 02:13:15;;;;;;;12.27;6.13;;;;;;;11.08;91.55;96023.41;5058728;28;20591;-69
2023/03/22 02:15:45;;;;;;;10.77;5.63;;;;;;;10.99;92.46;96027.13;5057799;28;20200;-66
2023/03/22 02:18:24;;;;;;;12.77;5.80;;;;;;;11.02;92.53;96027.59;5058475;28;20204;-66
2023/03/22 02:21:12;;;;;;;12.10;5.70;;;;;;;11.00;92.34;96024.31;5058667;28;20221;-68
2023/03/22 02:24:22;;;;;;;10.37;5.43;;;;;;;10.97;92.44;96029.13;5058648;28;20208;-66
2023/03/22 02:27:27;;;;;;;11.73;5.60;;;;;;;10.90;93.49;96032.72;5050934;28;20224;-66
2023/03/22 02:30:02;;;;;;;13.50;5.90;;;;;;;10.82;93.88;96031.00;5057840;28;20290;-66
2023/03/22 02:32:53;;;;;;;14.33;5.97;;;;;;;10.74;93.86;96032.88;5058223;28;20231;-66
2023/03/22 02:35:31;;;;;;;9.13;5.60;;;;;;;10.58;94.69;96033.09;5057267;28;20231;-67
2023/03/22 02:38:15;;;;;;;12.47;5.93;;;;;;;10.42;95.87;96028.81;5058191;28;20200;-66
2023/03/22 02:40:50;;;;;;;11.30;5.20;;;;;;;10.35;96.39;96035.00;5058104;28;20235;-66
2023/03/22 02:43:29;;;;;;;10.43;5.67;;;;;;;10.18;97.50;96022.97;5057861;28;20232;-66
2023/03/22 02:46:02;;;;;;;13.00;5.77;;;;;;;10.23;96.90;96023.25;5057273;28;20776;-66
2023/03/22 02:48:34;;;;;;;17.33;6.63;;;;;;;10.12;97.61;96014.97;5058180;28;20599;-67
2023/03/22 02:51:05;;;;;;;12.00;6.00;;;;;;;10.11;96.94;96016.78;5058055;28;20220;-68
2023/03/22 02:53:39;;;;;;;13.60;5.43;;;;;;;10.01;97.33;96008.31;5057583;28;20319;-66
2023/03/22 02:56:12;;;;;;;12.00;5.53;;;;;;;9.93;96.67;96016.28;5057950;28;20215;-65
2023/03/22 02:58:45;;;;;;;12.47;5.40;;;;;;;9.76;97.73;96012.16;5057576;28;20654;-68
2023/03/22 03:01:18;;;;;;;9.43;5.03;;;;;;;9.74;97.38;96016.75;5057581;28;20228;-66
2023/03/22 03:03:47;;;;;;;9.77;5.40;;;;;;;9.68;97.29;96021.09;5057025;28;20287;-66
2023/03/22 03:06:17;;;;;;;9.20;5.40;;;;;;;9.67;97.54;96025.53;5056897;28;20315;-66
2023/03/22 03:08:49;;;;;;;9.70;5.43;;;;;;;9.63;96.77;96023.44;5057615;28;20212;-66
2023/03/22 03:11:18;;;;;;;8.43;4.93;;;;;;;9.39;95.74;96023.63;5057414;28;20235;-66
2023/03/22 03:13:47;;;;;;;9.63;5.07;;;;;;;9.26;96.56;96020.75;5056550;28;20207;-67
2023/03/22 03:16:16;;;;;;;9.97;5.23;;;;;;;9.24;96.92;96023.56;5057108;28;20232;-67
2023/03/22 03:18:50;;;;;;;12.77;5.17;;;;;;;9.30;96.91;96016.78;5056246;28;20208;-67
2023/03/22 03:21:31;;;;;;;13.57;5.73;;;;;;;9.29;96.90;96015.13;5057155;28;20229;-67
2023/03/22 03:24:11;;;;;;;10.33;5.10;;;;;;;9.16;96.09;96009.63;5056757;28;20315;-66
2023/03/22 03:26:45;;;;;;;9.33;4.93;;;;;;;9.18;95.94;96012.91;5057914;28;20289;-66
2023/03/22 03:29:17;;;;;;;11.93;5.77;;;;;;;8.98;96.03;96011.72;5056934;28;20251;-67
2023/03/22 03:31:50;;;;;;;10.57;5.37;;;;;;;8.91;95.52;96016.03;5056502;28;20730;-67
2023/03/22 03:34:22;;;;;;;9.90;4.93;;;;;;;8.85;95.12;96011.44;5057301;28;20706;-65
2023/03/22 03:36:55;;;;;;;10.67;5.10;;;;;;;8.72;97.44;96003.31;5057664;28;20209;-66
2023/03/22 03:39:26;;;;;;;9.87;4.90;;;;;;;8.57;98.51;96007.63;5056613;28;21015;-67
2023/03/22 03:41:56;;;;;;;8.23;4.77;;;;;;;8.54;97.97;96012.41;5056920;28;20220;-65
2023/03/22 03:44:23;;;;;;;8.43;4.67;;;;;;;8.48;97.36;96013.91;5056376;28;20292;-68
2023/03/22 03:46:52;;;;;;;8.80;5.30;;;;;;;8.48;97.65;96015.72;5056219;28;20223;-68
2023/03/22 03:49:21;;;;;;;8.13;4.70;;;;;;;8.33;97.75;96014.78;5056708;28;20208;-68
2023/03/22 03:51:51;;;;;;;14.33;5.60;;;;;;;8.36;96.55;96006.56;5056211;28;20569;-66
2023/03/22 03:54:17;;;;;;;10.97;4.30;;;;;;;8.15;95.97;96021.25;5056195;28;20200;-68
2023/03/22 03:56:46;;;;;;;9.07;4.73;;;;;;;8.14;96.41;96009.09;5057039;28;20197;-68
2023/03/22 03:59:15;;;;;;;11.90;5.27;;;;;;;8.15;98.13;96016.00;5056735;28;20205;-66
2023/03/22 04:01:49;;;;;;;14.10;5.33;;;;;;;8.15;99.48;96010.75;5056368;28;20289;-66
2023/03/22 04:04:16;;;;;;;9.50;5.20;;;;;;;8.20;99.76;96014.50;5056112;28;20581;-68
2023/03/22 04:06:43;;;;;;;9.90;5.43;;;;;;;8.21;100.00;96010.03;5056715;28;20226;-66
2023/03/22 04:09:10;;;;;;;11.73;5.03;;;;;;;8.15;100.00;96008.13;5056307;28;20786;-66
2023/03/22 04:11:37;;;;;;;11.93;5.33;;;;;;;8.11;98.97;96009.41;5056558;28;20227;-66
2023/03/22 04:14:03;;;;;;;10.17;4.90;;;;;;;8.03;97.68;96017.28;5056112;28;20200;-67
2023/03/22 04:16:31;;;;;;;7.33;4.10;;;;;;;8.01;97.57;96016.63;5056350;28;20200;-68
2023/03/22 04:18:58;;;;;;;9.03;4.37;;;;;;;7.77;95.88;96016.66;5056711;28;20197;-65
2023/03/22 04:21:24;;;;;;;7.67;4.60;;;;;;;7.71;98.06;96024.38;5056485;28;20227;-68
2023/03/22 04:23:51;;;;;;;10.23;4.73;;;;;;;7.73;97.12;96025.03;5055797;28;20314;-68
2023/03/22 04:26:17;;;;;;;8.70;4.23;;;;;;;7.68;97.09;96033.38;5056283;28;20224;-66
2023/03/22 04:28:44;;;;;;;16.13;4.30;;;;;;;7.66;96.77;96030.13;5056257;28;20209;-67
2023/03/22 04:31:10;;;;;;;7.53;4.23;;;;;;;7.51;95.42;96031.75;5056199;28;20239;-69
2023/03/22 04:33:39;;;;;;;8.13;4.23;;;;;;;7.57;95.71;96041.56;5055936;28;20231;-66
2023/03/22 04:36:09;;;;;;;14.77;5.20;;;;;;;7.48;98.48;96036.50;5056262;28;20682;-66
2023/03/22 04:38:36;;;;;;;10.67;5.23;;;;;;;7.46;100.00;96039.28;5055734;28;20291;-67
2023/03/22 04:41:04;;;;;;;12.63;5.77;;;;;;;7.53;100.00;96044.69;5056212;28;20291;-66
2023/03/22 04:43:33;;;;;;;9.83;5.27;;;;;;;7.59;100.00;96044.84;5056399;28;20646;-68
2023/03/22 04:46:00;;;;;;;13.03;6.53;;;;;;;7.64;100.00;96047.81;5056138;28;20204;-67
2023/03/22 04:48:28;;;;;;;11.70;5.53;;;;;;;7.66;100.00;96040.63;5056024;28;20295;-66
2023/03/22 04:50:56;;;;;;;10.43;5.07;;;;;;;7.67;100.00;96046.66;5056169;28;20243;-65
2023/03/22 04:53:26;;;;;;;11.27;5.53;;;;;;;7.41;100.00;96046.00;5056514;28;20204;-69
2023/03/22 04:55:52;;;;;;;18.53;6.00;;;;;;;7.37;100.00;96040.25;5055220;28;20219;-67
2023/03/22 04:58:20;;;;;;;14.43;6.37;;;;;;;7.44;100.00;96041.22;5055897;28;20208;-66
2023/03/22 05:00:48;;;;;;;18.77;7.07;;;;;;;7.56;100.00;96045.19;5056561;28;21191;-67
2023/03/22 05:03:17;;;;;;;12.27;5.03;;;;;;;7.48;100.00;96045.16;5056009;28;20205;-68
2023/03/22 05:05:50;;;;;;;15.83;5.80;;;;;;;7.56;100.00;96041.72;5058218;28;20216;-66
2023/03/22 05:08:18;;;;;;;14.23;5.83;;;;;;;7.46;100.00;96044.53;5060322;28;20208;-66
2023/03/22 05:10:45;;;;;;;10.10;4.93;;;;;;;7.40;100.00;96045.16;5059647;28;20712;-66
2023/03/22 05:13:11;;;;;;;14.03;4.63;;;;;;;7.21;98.08;96035.97;5059408;28;20212;-67
2023/03/22 05:15:40;;;;;;;9.17;4.97;;;;;;;7.15;97.74;96041.84;5059328;28;20200;-65
2023/03/22 05:18:07;;;;;;;12.10;5.30;;;;;;;7.16;98.68;96035.66;5059851;28;20228;-66
2023/03/22 05:20:34;;;;;;;11.87;5.27;;;;;;;7.14;99.38;96042.84;5059506;28;20668;-67
2023/03/22 05:23:01;;;;;;;10.83;5.80;;;;;;;7.05;99.01;96038.56;5060200;28;20200;-67
2023/03/22 05:25:29;;;;;;;13.33;5.63;;;;;;;7.05;100.00;96041.19;5058852;28;20204;-68
2023/03/22 05:28:00;;;;;;;13.27;5.90;;;;;;;7.08;100.00;96027.78;5059221;28;20220;-65
2023/03/22 05:30:26;;;;;;;14.73;6.93;;;;;;;7.34;100.00;96032.72;5059322;28;20204;-67
2023/03/22 05:32:58;;;;;;;11.47;5.87;;;;;;;7.52;100.00;96033.41;5059587;28;20207;-68
2023/03/22 05:35:25;;;;;;;10.40;5.13;;;;;;;7.25;100.00;96040.72;5058914;28;20219;-67
2023/03/22 05:37:51;;;;;;;10.97;5.50;;;;;;;7.28;100.00;96045.66;5059715;28;20224;-69
2023/03/22 05:40:18;;;;;;;10.27;5.73;;;;;;;7.33;100.00;96041.56;5059488;28;20210;-66
2023/03/22 05:42:46;;;;;;;13.73;6.10;;;;;;;7.53;100.00;96044.69;5058759;28;20210;-67
2023/03/22 05:45:13;;;;;;;14.13;6.73;;;;;;;7.44;100.00;96040.44;5058708;28;20695;-67
2023/03/22 05:47:39;;;;;;;11.90;5.30;;;;;;;7.42;100.00;96048.47;5059337;28;20235;-68
2023/03/22 05:50:08;;;;;;;11.40;5.80;;;;;;;7.56;100.00;96041.72;5058532;28;20204;-67
2023/03/22 05:52:34;;;;;;;18.30;6.70;;;;;;;7.58;100.00;96037.16;5058719;28;20937;-66
2023/03/22 05:55:01;;;;;;;14.60;6.00;;;;;;;7.69;100.00;96045.53;5058724;28;20197;-67
2023/03/22 05:57:28;;;;;;;12.20;5.63;;;;;;;7.51;100.00;96042.25;5058355;28;20701;-67
2023/03/22 05:59:57;;;;;;;13.10;6.40;;;;;;;7.68;100.00;96046.50;5058874;28;20307;-67
2023/03/22 06:02:23;;;;;;;14.63;6.50;;;;;;;7.69;100.00;96045.53;5058431;28;20623;-67
2023/03/22 06:04:50;;;;;;;14.93;6.37;;;;;;;7.84;100.00;96049.13;5059383;28;20632;-66
2023/03/22 06:07:18;;;;;;;13.23;6.67;;;;;;;7.92;100.00;96041.25;5058663;28;20318;-67
2023/03/22 06:09:44;;;;;;;15.10;7.43;;;;;;;7.98;100.00;96040.56;5058584;28;21383;-65
2023/03/22 06:12:11;;;;;;;19.07;6.20;;;;;;;7.95;100.00;96035.66;5059194;28;20228;-65
2023/03/22 06:14:38;;;;;;;14.43;7.07;;;;;;;7.98;100.00;96032.69;5057498;28;20209;-68
2023/03/22 06:17:05;;;;;;;16.53;7.47;;;;;;;8.12;100.00;96030.22;5058355;28;20203;-66
2023/03/22 06:19:32;;;;;;;12.33;6.23;;;;;;;8.17;100.00;96027.97;5058848;28;20207;-65
2023/03/22 06:21:59;;;;;;;16.30;7.37;;;;;;;8.24;100.00;96025.47;5059250;28;20224;-67
2023/03/22 06:24:25;;;;;;;17.17;7.17;;;;;;;8.32;100.00;96028.06;5057646;28;20204;-69
2023/03/22 06:26:52;;;;;;;19.43;7.43;;;;;;;8.46;100.00;96030.00;5058316;28;20700;-69
2023/03/22 06:29:18;;;;;;;15.73;7.10;;;;;;;8.63;100.00;96027.97;5058623;28;20215;-66
2023/03/22 06:31:46;;;;;;;15.60;7.60;;;;;;;8.80;100.00;96029.53;5058687;28;20228;-69
2023/03/22 06:34:14;;;;;;;17.40;6.50;;;;;;;9.00;100.00;96028.13;5057787;28;20200;-67
2023/03/22 06:36:41;;;;;;;13.73;6.83;;;;;;;9.04;100.00;96026.78;5059333;28;21221;-66
2023/03/22 06:39:07;;;;;;;13.00;6.00;;;;;;;9.03;100.00;96032.22;5057949;28;20336;-65
2023/03/22 06:41:34;;;;;;;15.70;7.10;;;;;;;9.16;100.00;96030.66;5057832;28;20220;-68
2023/03/22 06:44:02;;;;;;;14.33;6.10;;;;;;;9.28;100.00;96039.81;5057508;28;20204;-66
2023/03/22 06:46:28;;;;;;;14.93;6.87;;;;;;;9.28;100.00;96035.34;5057628;28;20262;-68
2023/03/22 06:48:55;;;;;;;17.60;5.97;;;;;;;9.27;100.00;96027.66;5057781;28;20295;-66
2023/03/22 06:51:23;;;;;;;12.17;6.50;;;;;;;9.48;99.28;96027.81;5058183;28;20228;-65
2023/03/22 06:53:50;;;;;;;17.80;6.50;;;;;;;9.65;97.45;96037.22;5057011;28;20208;-65
2023/03/22 06:56:16;;;;;;;13.70;6.60;;;;;;;9.56;97.81;96035.66;5057190;28;20215;-68
2023/03/22 06:58:43;;;;;;;13.20;6.73;;;;;;;9.65;97.29;96030.16;5057928;28;20200;-68
2023/03/22 07:01:09;;;;;;;13.43;7.07;;;;;;;9.67;97.66;96040.50;5058486;28;20720;-68
2023/03/22 07:03:36;;;;;;;18.03;8.37;;;;;;;9.84;96.78;96027.88;5056981;28;20216;-64
2023/03/22 07:06:03;;;;;;;19.20;7.70;;;;;;;9.94;96.41;96035.50;5056847;28;20212;-67
2023/03/22 07:08:32;;;;;;;22.80;9.93;;;;;;;10.07;95.61;96026.03;5057236;28;20231;-67
2023/03/22 07:10:59;;;;;;;28.57;9.20;;;;;;;10.02;97.18;96020.50;5057398;28;20213;-68
2023/03/22 07:13:26;;;;;;;14.63;7.30;;;;;;;10.20;94.35;96031.50;5057130;28;20216;-67
2023/03/22 07:15:55;;;;;;;13.67;6.73;;;;;;;10.31;94.65;96030.25;5057147;28;20201;-68
2023/03/22 07:18:22;;;;;;;9.87;5.33;;;;;;;10.27;93.91;96035.03;5057944;28;20204;-67
2023/03/22 07:20:48;;;;;;;9.47;5.17;;;;;;;10.15;94.42;96038.31;5056979;28;20227;-65
2023/03/22 07:23:15;;;;;;;15.60;6.50;;;;;;;10.39;93.68;96036.25;5057501;28;20207;-64
2023/03/22 07:25:43;;;;;;;11.77;6.40;;;;;;;10.55;94.64;96033.44;5056591;28;20212;-67
2023/03/22 07:28:10;;;;;;;11.83;6.37;;;;;;;10.55;94.18;96039.53;5056055;28;20224;-67
2023/03/22 07:30:37;;;;;;;12.53;6.13;;;;;;;10.73;93.10;96026.81;5057403;28;20224;-65
2023/03/22 07:33:04;;;;;;;12.73;6.23;;;;;;;10.75;93.13;96029.25;5057164;28;20321;-67
2023/03/22 07:35:30;;;;;;;13.17;5.33;;;;;;;10.86;92.64;96028.78;5056348;28;20204;-68
2023/03/22 07:37:57;;;;;;;12.07;5.97;;;;;;;10.95;92.69;96012.69;5056656;28;20196;-66
2023/03/22 07:40:25;;;;;;;13.53;6.37;;;;;;;11.24;91.07;96026.63;5057464;28;20214;-67
2023/03/22 07:42:53;;;;;;;14.60;7.30;;;;;;;11.35;90.01;96028.78;5056996;28;20200;-64
2023/03/22 07:45:22;;;;;;;10.10;5.80;;;;;;;11.35;87.89;96031.41;5056197;28;20205;-65
2023/03/22 07:47:48;;;;;;;8.77;5.30;;;;;;;11.30;88.29;96023.25;5056953;28;20864;-64
2023/03/22 07:50:16;;;;;;;15.03;5.60;;;;;;;11.48;87.52;96026.31;5056823;28;20687;-67
2023/03/22 07:52:44;;;;;;;9.43;5.10;;;;;;;11.54;86.32;96024.75;5055822;28;20207;-65
2023/03/22 07:55:12;;;;;;;9.17;5.43;;;;;;;11.82;84.38;96015.88;5056015;28;20963;-65
2023/03/22 07:57:39;;;;;;;9.50;5.33;;;;;;;11.72;84.93;96020.66;5056933;28;20200;-67
2023/03/22 08:00:09;;;;;;;10.00;4.80;;;;;;;11.89;83.91;96017.56;5057011;28;20201;-67
2023/03/22 08:02:37;;;;;;;9.07;5.00;;;;;;;12.06;84.85;96021.56;5057133;28;20696;-68
2023/03/22 08:05:04;;;;;;;9.27;4.83;;;;;;;12.12;82.31;96014.69;5055907;28;20231;-67
2023/03/22 08:07:31;;;;;;;9.73;5.30;;;;;;;12.24;83.84;96017.47;5056440;28;20259;-66
2023/03/22 08:09:57;;;;;;;9.60;5.63;;;;;;;12.26;81.74;96019.91;5056868;28;20197;-68
2023/03/22 08:12:26;;;;;;;9.83;4.70;;;;;;;12.42;81.23;96036.28;5057050;28;20227;-65
2023/03/22 08:14:53;;;;;;;13.47;5.17;;;;;;;12.27;81.26;96032.94;5056526;28;20571;-67
2023/03/22 08:17:21;;;;;;;7.30;3.53;;;;;;;12.36;80.52;96036.25;5056197;28;20208;-64
2023/03/22 08:19:48;;;;;;;10.00;5.07;;;;;;;12.17;81.71;96043.00;5056769;28;20204;-66
2023/03/22 08:22:15;;;;;;;9.03;5.00;;;;;;;12.28;82.47;96034.56;5057101;28;20243;-67
2023/03/22 08:24:42;;;;;;;9.40;5.07;;;;;;;12.47;81.31;96028.56;5055216;28;20664;-67
2023/03/22 08:27:08;;;;;;;12.70;5.87;;;;;;;12.61;81.30;96030.28;5053392;28;20208;-68
2023/03/22 08:29:36;;;;;;;10.90;5.10;;;;;;;12.74;78.76;96026.91;5055520;28;20676;-67
2023/03/22 08:32:04;;;;;;;4.83;2.13;;;;;;;12.90;76.40;96030.09;5055940;28;20232;-67
2023/03/22 08:34:36;;;;;;;8.87;4.73;;;;;;;12.88;77.01;96035.59;5054964;28;20232;-68
2023/03/22 08:37:04;;;;;;;10.67;4.70;;;;;;;13.12;74.72;96021.03;5056332;28;20215;-67
2023/03/22 08:39:30;;;;;;;7.97;4.50;;;;;;;13.28;77.12;96016.22;5058945;28;20584;-67
2023/03/22 08:41:56;;;;;;;9.00;4.30;;;;;;;13.26;75.54;96017.44;5060140;28;20241;-67
2023/03/22 08:44:23;;;;;;;10.37;3.83;;;;;;;13.42;73.35;96018.69;5059696;28;20562;-67
2023/03/22 08:46:50;;;;;;;6.47;4.10;;;;;;;13.41;74.89;96019.69;5060220;28;20201;-67
2023/03/22 08:49:16;;;;;;;9.33;4.23;;;;;;;13.26;73.90;96023.53;5059059;28;20231;-67
2023/03/22 08:51:44;;;;;;;9.93;3.73;;;;;;;13.58;73.50;96017.50;5058574;28;20228;-67
2023/03/22 08:54:12;;;;;;;6.87;3.80;;;;;;;13.60;73.37;96023.44;5057308;28;20869;-67
2023/03/22 08:56:39;;;;;;;10.57;4.17;;;;;;;13.76;72.02;96020.41;5059074;28;20208;-68
2023/03/22 08:59:06;;;;;;;8.85;4.88;;;;;;;13.71;73.64;96023.66;5058312;28;20193;-67
2023/03/22 09:01:34;;;;;;;8.98;4.43;;;;;;;13.90;73.47;96016.75;5058725;28;20501;-68
2023/03/22 09:04:01;;;;;;;7.43;3.95;;;;;;;13.96;72.10;96019.41;5058450;28;20579;-67
2023/03/22 09:06:28;;;;;;;8.23;3.80;;;;;;;14.10;72.51;96021.06;5059259;28;20204;-67
2023/03/22 09:08:56;;;;;;;5.03;3.30;;;;;;;14.31;70.28;96019.03;5058817;28;20889;-67
2023/03/22 09:11:23;;;;;;;6.97;3.75;;;;;;;14.25;71.41;96027.00;5058830;28;20708;-67
2023/03/22 09:13:50;;;;;;;7.95;4.90;;;;;;;14.40;71.86;96019.66;5058107;28;20201;-67
2023/03/22 09:16:17;;;;;;;7.00;4.35;;;;;;;14.45;71.50;96015.38;5059443;28;20262;-68
2023/03/22 09:18:44;;;;;;;4.65;3.15;;;;;;;14.22;69.84;96017.63;5058493;28;20200;-67
2023/03/22 09:21:12;;;;;;;9.25;4.00;;;;;;;14.28;68.70;96018.63;5058631;28;21360;-67
2023/03/22 09:23:39;;;;;;;6.18;3.70;;;;;;;14.57;69.86;96012.91;5059123;28;20585;-67
2023/03/22 09:26:08;;;;;;;5.15;3.03;;;;;;;14.69;67.14;96012.88;5058751;28;20673;-68
2023/03/22 09:28:36;;;;;;;7.63;3.83;;;;;;;14.64;67.96;96010.03;5058274;28;20220;-67
2023/03/22 09:31:05;;;;;;;7.75;3.80;;;;;;;14.76;68.39;96007.53;5058056;28;20303;-68
2023/03/22 09:33:32;;;;;;;10.70;3.70;;;;;;;15.03;69.11;96015.25;5058843;28;20201;-67
2023/03/22 09:35:59;;;;;;;4.32;2.53;;;;;;;14.96;65.92;96008.31;5058347;28;20254;-67
2023/03/22 09:38:26;;;;;;;5.72;3.42;;;;;;;14.87;67.40;96005.06;5058411;28;20204;-67
2023/03/22 09:40:59;;;;;;;10.25;3.30;;;;;;;15.00;66.08;95997.06;5057904;28;20220;-68
2023/03/22 09:43:29;;;;;;;6.90;3.75;;;;;;;15.18;66.42;95999.84;5058382;28;20227;-67
2023/03/22 09:45:56;;;;;;;6.05;3.63;;;;;;;15.10;65.92;95996.63;5058184;28;20223;-67
2023/03/22 09:48:29;;;;;;;4.97;3.53;;;;;;;15.43;66.26;95990.97;5057680;28;20228;-67
2023/03/22 09:50:56;;;;;;;3.65;2.40;;;;;;;15.44;65.54;95991.78;5057005;28;20216;-67
2023/03/22 09:53:24;;;;;;;6.00;2.67;;;;;;;15.55;64.19;95991.94;5057988;28;20578;-67
2023/03/22 09:55:57;;;;;;;6.05;2.35;;;;;;;15.71;63.12;95993.28;5057507;28;20195;-67
2023/03/22 09:58:31;;;;;;;1.95;1.40;;;;;;;15.57;62.33;95986.44;5058157;28;20580;-67
2023/03/22 10:01:01;;;;;;;3.75;1.85;;;;;;;15.60;61.56;95993.97;5058403;28;20224;-67
2023/03/22 10:04:03;;;;;;;5.05;1.67;;;;;;;15.75;63.24;95983.84;5059504;28;20467;-67
2023/03/22 10:06:30;;;;;;;5.28;2.60;;;;;;;15.77;62.74;95976.47;5005383;28;20214;-67
2023/03/22 10:09:06;;;;;;;4.78;2.25;;;;;;;16.01;63.05;95979.16;5058057;28;20295;-67
2023/03/22 10:11:42;;;;;;;6.35;2.50;;;;;;;15.85;63.33;95974.38;5057910;28;20220;-67
2023/03/22 10:14:23;;;;;;;4.75;2.38;;;;;;;16.01;63.09;95963.22;5056715;28;20203;-68
2023/03/22 10:16:52;;;;;;;4.45;2.30;;;;;;;16.15;63.87;95954.94;5057799;28;20201;-68
2023/03/22 10:19:23;;;;;;;4.70;2.65;;;;;;;16.32;62.73;95948.03;5057855;28;20204;-67
2023/03/22 10:21:52;;;;;;;6.13;2.63;;;;;;;16.42;62.37;95943.03;5057259;28;20783;-68
2023/03/22 10:24:24;;;;;;;5.10;2.67;;;;;;;16.41;63.22;95952.06;5057094;28;20945;-67
2023/03/22 10:26:51;;;;;;;3.28;2.28;;;;;;;16.40;61.96;95938.97;5057319;28;20203;-67
2023/03/22 10:29:23;;;;;;;3.13;2.28;;;;;;;16.54;62.64;95936.75;5057189;28;20231;-68
2023/03/22 10:31:50;;;;;;;4.03;2.25;;;;;;;16.55;61.88;95934.94;5057667;28;20668;-68
2023/03/22 10:34:20;;;;;;;6.72;2.30;;;;;;;16.43;61.87;95931.34;5057632;28;21148;-67
2023/03/22 10:36:49;;;;;;;3.45;2.00;;;;;;;16.36;61.90;95933.28;5057619;28;20200;-68
2023/03/22 10:39:28;;;;;;;3.08;1.98;;;;;;;16.52;61.05;95922.88;5058055;28;20200;-67
2023/03/22 10:41:58;;;;;;;4.68;2.22;;;;;;;16.55;61.61;95922.44;5058828;28;20216;-67
2023/03/22 10:44:30;;;;;;;5.50;2.28;;;;;;;16.71;60.59;95931.66;5057023;28;20200;-67
2023/03/22 10:47:05;;;;;;;4.22;2.08;;;;;;;16.93;60.95;95919.53;5056654;28;20196;-68
2023/03/22 10:49:36;;;;;;;2.90;1.90;;;;;;;17.08;59.30;95930.63;5058012;28;20711;-67
2023/03/22 10:52:09;;;;;;;3.88;1.33;;;;;;;17.11;58.76;95923.00;5057516;28;20229;-68
2023/03/22 10:54:36;;;;;;;3.03;1.20;;;;;;;16.94;58.65;95934.47;5056930;28;20295;-67
2023/03/22 10:57:03;;;;;;;2.33;1.80;;;;;;;16.86;59.02;95926.78;5057934;28;20223;-67
2023/03/22 10:59:46;;;;;;;4.38;2.03;;;;;;;17.06;58.60;95927.38;5057521;28;20201;-67
2023/03/22 11:02:17;;;;;;;3.33;1.98;;;;;;;16.94;59.60;95924.66;5057515;28;20228;-67
2023/03/22 11:04:47;;;;;;;5.13;2.30;;;;;;;17.10;59.30;95924.84;5056484;28;20226;-67
2023/03/22 11:07:25;;;;;;;3.30;1.83;;;;;;;17.36;60.01;95919.22;5057177;28;20208;-67
2023/03/22 11:09:58;;;;;;;4.70;2.00;;;;;;;17.52;58.08;95907.91;5056978;28;20216;-67
2023/03/22 11:12:25;;;;;;;4.50;1.90;;;;;;;17.36;57.42;95919.22;5057223;28;20224;-68
2023/03/22 11:14:52;;;;;;;5.63;1.80;;;;;;;17.59;57.76;95913.97;5056155;28;20200;-67
2023/03/22 11:17:24;;;;;;;3.38;1.75;;;;;;;17.91;58.36;95908.13;5057477;28;20205;-67
2023/03/22 11:19:53;;;;;;;1.95;1.27;;;;;;;17.89;57.28;95904.06;5057000;28;20201;-67
2023/03/22 11:22:25;;;;;;;6.45;2.15;;;;;;;18.17;57.39;95893.53;5057687;28;20236;-67
2023/03/22 11:24:52;;;;;;;3.13;1.95;;;;;;;17.94;56.27;95880.97;5055786;28;20635;-67
2023/03/22 11:27:21;;;;;;;4.85;1.40;;;;;;;17.75;55.10;95890.09;5057006;28;20204;-67
2023/03/22 11:29:49;;;;;;;3.80;1.85;;;;;;;17.64;56.31;95889.28;5056974;28;20234;-67
2023/03/22 11:32:25;;;;;;;2.15;1.30;;;;;;;17.85;55.75;95871.69;5056973;28;21300;-67
2023/03/22 11:35:00;;;;;;;3.08;1.88;;;;;;;17.99;56.48;95872.31;5056474;28;20917;-68
2023/03/22 11:37:26;;;;;;;2.25;1.67;;;;;;;17.99;54.83;95875.78;5056437;28;20254;-68